LHA280 EDDS-EDDK
Flight info
| Callsign | LHA280 |
|---|---|
| Flight time | 0h 33m |
| Altitude | 24000 |
| Route | TAGIK2H/07 TAGIK Z3 EBATU Z41 OLKAS T840 GULKO |
| Aircraft | A321/M-SDE1E2FGIJ1RWYZ/S |
Departure
| Time | 2026-04-25 13:12 |
|---|---|
| Airport | Stuttgart Airport (EDDS) |
Arrival
| Time | 2026-04-25 13:46 |
|---|---|
| Airport | Cologne Bonn Airport (EDDK) |
| Time | Latitude | Longitude | Altitude | Speed | Heading |
|---|---|---|---|---|---|
| 2026-04-25 12:47 | 48.68369 | 9.20565 | 1271 ft | 0 kts | 164° |
| 2026-04-25 13:04 | 48.68370 | 9.20565 | 1271 ft | 1 kts | 164° |
| 2026-04-25 13:04 | 48.68384 | 9.20559 | 1271 ft | 2 kts | 163° |
| 2026-04-25 13:04 | 48.68399 | 9.20552 | 1271 ft | 2 kts | 164° |
| 2026-04-25 13:04 | 48.68414 | 9.20548 | 1271 ft | 2 kts | 194° |
| 2026-04-25 13:05 | 48.68427 | 9.20560 | 1271 ft | 2 kts | 230° |
| 2026-04-25 13:05 | 48.68432 | 9.20572 | 1271 ft | 0 kts | 252° |
| 2026-04-25 13:05 | 48.68434 | 9.20583 | 1270 ft | 0 kts | 254° |
| 2026-04-25 13:07 | 48.68433 | 9.20582 | 1270 ft | 0 kts | 254° |
| 2026-04-25 13:08 | 48.68414 | 9.20474 | 1273 ft | 20 kts | 255° |
| 2026-04-25 13:08 | 48.68374 | 9.20271 | 1277 ft | 18 kts | 252° |
| 2026-04-25 13:08 | 48.68381 | 9.20135 | 1279 ft | 12 kts | 320° |
| 2026-04-25 13:08 | 48.68420 | 9.20106 | 1280 ft | 0 kts | 341° |
| 2026-04-25 13:09 | 48.68424 | 9.20105 | 1280 ft | 0 kts | 341° |
| 2026-04-25 13:09 | 48.68439 | 9.20097 | 1281 ft | 4 kts | 341° |
| 2026-04-25 13:09 | 48.68466 | 9.20084 | 1281 ft | 0 kts | 343° |
| 2026-04-25 13:10 | 48.68478 | 9.20079 | 1281 ft | 10 kts | 349° |
| 2026-04-25 13:10 | 48.68591 | 9.20140 | 1282 ft | 20 kts | 58° |
| 2026-04-25 13:10 | 48.68634 | 9.20347 | 1277 ft | 21 kts | 74° |
| 2026-04-25 13:11 | 48.68638 | 9.20369 | 1277 ft | 0 kts | 74° |
| 2026-04-25 13:11 | 48.68642 | 9.20388 | 1276 ft | 13 kts | 73° |
| 2026-04-25 13:11 | 48.68740 | 9.20909 | 1261 ft | 88 kts | 72° |
| 2026-04-25 13:12 | 48.68980 | 9.22136 | 1234 ft | 152 kts | 73° |
| 2026-04-25 13:12 | 48.69298 | 9.23902 | 1407 ft | 185 kts | 75° |
| 2026-04-25 13:12 | 48.69562 | 9.25758 | 2104 ft | 181 kts | 77° |
| 2026-04-25 13:12 | 48.69697 | 9.27011 | 2521 ft | 181 kts | 79° |
| 2026-04-25 13:13 | 48.70124 | 9.29462 | 3282 ft | 188 kts | 69° |
| 2026-04-25 13:13 | 48.70562 | 9.31360 | 3585 ft | 199 kts | 68° |
| 2026-04-25 13:13 | 48.71020 | 9.33413 | 3857 ft | 212 kts | 70° |
| 2026-04-25 13:13 | 48.71488 | 9.35639 | 4081 ft | 231 kts | 70° |
| 2026-04-25 13:14 | 48.71975 | 9.38047 | 4402 ft | 248 kts | 71° |
| 2026-04-25 13:14 | 48.72567 | 9.40564 | 4723 ft | 264 kts | 58° |
| 2026-04-25 13:14 | 48.73872 | 9.42518 | 5209 ft | 269 kts | 25° |
| 2026-04-25 13:14 | 48.75652 | 9.43236 | 5918 ft | 267 kts | 2° |
| 2026-04-25 13:15 | 48.77512 | 9.43356 | 6611 ft | 269 kts | 355° |
| 2026-04-25 13:15 | 48.79334 | 9.42840 | 7289 ft | 271 kts | 339° |
| 2026-04-25 13:15 | 48.81061 | 9.41698 | 8017 ft | 273 kts | 332° |
| 2026-04-25 13:15 | 48.82724 | 9.40309 | 8755 ft | 274 kts | 323° |
| 2026-04-25 13:16 | 48.84217 | 9.38548 | 9498 ft | 276 kts | 319° |
| 2026-04-25 13:16 | 48.85677 | 9.36693 | 10209 ft | 279 kts | 319° |
| 2026-04-25 13:16 | 48.87192 | 9.34774 | 10728 ft | 289 kts | 319° |
| 2026-04-25 13:16 | 48.88791 | 9.32775 | 11044 ft | 306 kts | 320° |
| 2026-04-25 13:17 | 48.90477 | 9.30692 | 11346 ft | 323 kts | 320° |
| 2026-04-25 13:17 | 48.92263 | 9.28502 | 11647 ft | 339 kts | 320° |
| 2026-04-25 13:17 | 48.94114 | 9.26240 | 12091 ft | 348 kts | 320° |
| 2026-04-25 13:17 | 48.96021 | 9.23914 | 12734 ft | 351 kts | 320° |
| 2026-04-25 13:18 | 48.97926 | 9.21590 | 13428 ft | 354 kts | 320° |
| 2026-04-25 13:18 | 48.99837 | 9.19256 | 14061 ft | 356 kts | 320° |
| 2026-04-25 13:18 | 49.01773 | 9.16889 | 14688 ft | 359 kts | 320° |
| 2026-04-25 13:18 | 49.03721 | 9.14506 | 15306 ft | 362 kts | 320° |
| 2026-04-25 13:19 | 49.05685 | 9.12100 | 15928 ft | 365 kts | 320° |
| 2026-04-25 13:19 | 49.07659 | 9.09680 | 16536 ft | 367 kts | 320° |
| 2026-04-25 13:19 | 49.09649 | 9.07236 | 17116 ft | 370 kts | 320° |
| 2026-04-25 13:19 | 49.10325 | 9.06405 | 17313 ft | 371 kts | 320° |
| 2026-04-25 13:20 | 49.13670 | 9.02289 | 18283 ft | 375 kts | 320° |
| 2026-04-25 13:20 | 49.15713 | 8.99772 | 18834 ft | 378 kts | 320° |
| 2026-04-25 13:20 | 49.17812 | 8.97378 | 19331 ft | 382 kts | 328° |
| 2026-04-25 13:20 | 49.20284 | 8.95846 | 19807 ft | 389 kts | 344° |
| 2026-04-25 13:21 | 49.22978 | 8.95451 | 20292 ft | 396 kts | 359° |
| 2026-04-25 13:21 | 49.25718 | 8.95789 | 20786 ft | 399 kts | 2° |
| 2026-04-25 13:21 | 49.28510 | 8.96201 | 21224 ft | 403 kts | 3° |
| 2026-04-25 13:21 | 49.31294 | 8.96613 | 21656 ft | 406 kts | 2° |
| 2026-04-25 13:22 | 49.34097 | 8.97020 | 22097 ft | 409 kts | 2° |
| 2026-04-25 13:22 | 49.36944 | 8.97428 | 22546 ft | 411 kts | 2° |
| 2026-04-25 13:22 | 49.39809 | 8.97834 | 22980 ft | 414 kts | 2° |
| 2026-04-25 13:23 | 49.45583 | 8.98647 | 23816 ft | 418 kts | 2° |
| 2026-04-25 13:23 | 49.48473 | 8.98972 | 24078 ft | 418 kts | 358° |
| 2026-04-25 13:23 | 49.51408 | 8.98714 | 24090 ft | 414 kts | 350° |
| 2026-04-25 13:23 | 49.54216 | 8.97816 | 24092 ft | 411 kts | 342° |
| 2026-04-25 13:24 | 49.56948 | 8.96387 | 24093 ft | 410 kts | 338° |
| 2026-04-25 13:24 | 49.59621 | 8.94831 | 24095 ft | 409 kts | 337° |
| 2026-04-25 13:24 | 49.62245 | 8.93284 | 24099 ft | 409 kts | 337° |
| 2026-04-25 13:24 | 49.64936 | 8.91706 | 24094 ft | 409 kts | 337° |
| 2026-04-25 13:25 | 49.67591 | 8.90160 | 24093 ft | 409 kts | 337° |
| 2026-04-25 13:25 | 49.70247 | 8.88618 | 24093 ft | 409 kts | 337° |
| 2026-04-25 13:25 | 49.72947 | 8.87038 | 24093 ft | 408 kts | 336° |
| 2026-04-25 13:25 | 49.75531 | 8.85261 | 24093 ft | 407 kts | 332° |
| 2026-04-25 13:26 | 49.78024 | 8.83166 | 24095 ft | 406 kts | 328° |
| 2026-04-25 13:26 | 49.80388 | 8.80792 | 24093 ft | 406 kts | 324° |
| 2026-04-25 13:26 | 49.82690 | 8.78282 | 24096 ft | 406 kts | 323° |
| 2026-04-25 13:26 | 49.84993 | 8.75730 | 24097 ft | 406 kts | 323° |
| 2026-04-25 13:27 | 49.87291 | 8.73191 | 24092 ft | 405 kts | 324° |
| 2026-04-25 13:27 | 49.89614 | 8.70643 | 24097 ft | 406 kts | 324° |
| 2026-04-25 13:27 | 49.91905 | 8.68131 | 24100 ft | 405 kts | 324° |
| 2026-04-25 13:27 | 49.94202 | 8.65609 | 24098 ft | 406 kts | 324° |
| 2026-04-25 13:28 | 49.96539 | 8.63040 | 24104 ft | 405 kts | 324° |
| 2026-04-25 13:28 | 49.97283 | 8.62221 | 24103 ft | 405 kts | 324° |
| 2026-04-25 13:28 | 50.01141 | 8.57970 | 24105 ft | 406 kts | 324° |
| 2026-04-25 13:28 | 50.03495 | 8.55519 | 24104 ft | 406 kts | 328° |
| 2026-04-25 13:29 | 50.05960 | 8.53420 | 24107 ft | 407 kts | 333° |
| 2026-04-25 13:29 | 50.08580 | 8.51651 | 24110 ft | 408 kts | 338° |
| 2026-04-25 13:29 | 50.11264 | 8.50144 | 24115 ft | 408 kts | 340° |
| 2026-04-25 13:30 | 50.16597 | 8.47286 | 24114 ft | 407 kts | 340° |
| 2026-04-25 13:30 | 50.19299 | 8.45836 | 24115 ft | 407 kts | 340° |
| 2026-04-25 13:30 | 50.21948 | 8.44408 | 24117 ft | 407 kts | 340° |
| 2026-04-25 13:31 | 50.27258 | 8.41447 | 24110 ft | 406 kts | 337° |
| 2026-04-25 13:31 | 50.29797 | 8.39612 | 24107 ft | 406 kts | 332° |
| 2026-04-25 13:31 | 50.32252 | 8.37422 | 24110 ft | 406 kts | 328° |
| 2026-04-25 13:31 | 50.34648 | 8.35065 | 24110 ft | 405 kts | 327° |
| 2026-04-25 13:32 | 50.37024 | 8.32677 | 24112 ft | 405 kts | 326° |
| 2026-04-25 13:32 | 50.39395 | 8.30295 | 24110 ft | 405 kts | 326° |
| 2026-04-25 13:32 | 50.41763 | 8.27921 | 24110 ft | 405 kts | 327° |
| 2026-04-25 13:32 | 50.44106 | 8.25577 | 24111 ft | 405 kts | 327° |
| 2026-04-25 13:33 | 50.46486 | 8.23194 | 24115 ft | 405 kts | 327° |
| 2026-04-25 13:33 | 50.48863 | 8.20810 | 24117 ft | 405 kts | 327° |
| 2026-04-25 13:33 | 50.51220 | 8.18442 | 24119 ft | 404 kts | 327° |
| 2026-04-25 13:33 | 50.52804 | 8.16849 | 24120 ft | 404 kts | 327° |
| 2026-04-25 13:34 | 50.55947 | 8.13682 | 24122 ft | 404 kts | 327° |
| 2026-04-25 13:34 | 50.58299 | 8.11305 | 24041 ft | 405 kts | 327° |
| 2026-04-25 13:34 | 50.60632 | 8.08939 | 23336 ft | 399 kts | 326° |
| 2026-04-25 13:34 | 50.62945 | 8.06588 | 22581 ft | 395 kts | 326° |
| 2026-04-25 13:35 | 50.65226 | 8.04273 | 21836 ft | 391 kts | 327° |
| 2026-04-25 13:35 | 50.67487 | 8.01981 | 21092 ft | 387 kts | 327° |
| 2026-04-25 13:35 | 50.69746 | 7.99699 | 20346 ft | 383 kts | 326° |
| 2026-04-25 13:35 | 50.71977 | 7.97456 | 19604 ft | 378 kts | 327° |
| 2026-04-25 13:36 | 50.74151 | 7.95272 | 18877 ft | 374 kts | 327° |
| 2026-04-25 13:36 | 50.76319 | 7.93094 | 18118 ft | 371 kts | 327° |
| 2026-04-25 13:36 | 50.78488 | 7.90910 | 17241 ft | 365 kts | 327° |
| 2026-04-25 13:36 | 50.80588 | 7.88788 | 16263 ft | 360 kts | 327° |
| 2026-04-25 13:37 | 50.82651 | 7.86702 | 15270 ft | 355 kts | 327° |
| 2026-04-25 13:37 | 50.84697 | 7.84636 | 14273 ft | 350 kts | 327° |
| 2026-04-25 13:37 | 50.86737 | 7.82578 | 13269 ft | 345 kts | 327° |
| 2026-04-25 13:37 | 50.88716 | 7.80579 | 12298 ft | 340 kts | 327° |
| 2026-04-25 13:38 | 50.90685 | 7.78582 | 11309 ft | 335 kts | 327° |
| 2026-04-25 13:38 | 50.92603 | 7.76629 | 10319 ft | 331 kts | 327° |
| 2026-04-25 13:38 | 50.94516 | 7.74671 | 9330 ft | 327 kts | 327° |
| 2026-04-25 13:38 | 50.96393 | 7.72744 | 8344 ft | 323 kts | 327° |
| 2026-04-25 13:39 | 50.98243 | 7.70814 | 7360 ft | 320 kts | 324° |
| 2026-04-25 13:39 | 50.99757 | 7.68303 | 6346 ft | 317 kts | 302° |
| 2026-04-25 13:39 | 51.00490 | 7.65099 | 5357 ft | 317 kts | 279° |
| 2026-04-25 13:39 | 51.00427 | 7.61634 | 4596 ft | 310 kts | 264° |
| 2026-04-25 13:40 | 50.99863 | 7.58455 | 4111 ft | 296 kts | 251° |
| 2026-04-25 13:40 | 50.99108 | 7.55540 | 3933 ft | 273 kts | 249° |
| 2026-04-25 13:40 | 50.98367 | 7.52923 | 3920 ft | 247 kts | 248° |
| 2026-04-25 13:40 | 50.97645 | 7.50494 | 3923 ft | 240 kts | 248° |
| 2026-04-25 13:41 | 50.96926 | 7.48129 | 3933 ft | 240 kts | 248° |
| 2026-04-25 13:41 | 50.96200 | 7.45766 | 3933 ft | 236 kts | 248° |
| 2026-04-25 13:41 | 50.95512 | 7.43546 | 3898 ft | 214 kts | 248° |
| 2026-04-25 13:41 | 50.94887 | 7.41526 | 3758 ft | 193 kts | 248° |
| 2026-04-25 13:42 | 50.94314 | 7.39659 | 3510 ft | 189 kts | 248° |
| 2026-04-25 13:42 | 50.93740 | 7.37779 | 3261 ft | 188 kts | 248° |
| 2026-04-25 13:42 | 50.93181 | 7.35950 | 3020 ft | 187 kts | 248° |
| 2026-04-25 13:42 | 50.92616 | 7.34098 | 2774 ft | 186 kts | 248° |
| 2026-04-25 13:43 | 50.92051 | 7.32250 | 2528 ft | 185 kts | 247° |
| 2026-04-25 13:43 | 50.91490 | 7.30414 | 2285 ft | 185 kts | 247° |
| 2026-04-25 13:43 | 50.90934 | 7.28589 | 2045 ft | 184 kts | 247° |
| 2026-04-25 13:43 | 50.90381 | 7.26774 | 1809 ft | 182 kts | 247° |
| 2026-04-25 13:44 | 50.89839 | 7.24995 | 1603 ft | 175 kts | 247° |
| 2026-04-25 13:44 | 50.89336 | 7.23344 | 1432 ft | 161 kts | 247° |
| 2026-04-25 13:44 | 50.88866 | 7.21798 | 1160 ft | 150 kts | 248° |
| 2026-04-25 13:44 | 50.88431 | 7.20367 | 944 ft | 141 kts | 247° |
| 2026-04-25 13:45 | 50.88012 | 7.18980 | 753 ft | 140 kts | 248° |
| 2026-04-25 13:45 | 50.87580 | 7.17540 | 590 ft | 152 kts | 244° |
| 2026-04-25 13:45 | 50.87116 | 7.16026 | 371 ft | 150 kts | 245° |
| 2026-04-25 13:45 | 50.86683 | 7.14608 | 267 ft | 134 kts | 246° |
| 2026-04-25 13:46 | 50.86458 | 7.13833 | 259 ft | 38 kts | 244° |
| 2026-04-25 13:46 | 50.86386 | 7.13520 | 256 ft | 26 kts | 276° |
| 2026-04-25 13:46 | 50.86431 | 7.13387 | 253 ft | 0 kts | 315° |
| 2026-04-25 13:46 | 50.86434 | 7.13383 | 253 ft | 0 kts | 315° |
| 2026-04-25 13:47 | 50.86443 | 7.13371 | 253 ft | 7 kts | 321° |
| 2026-04-25 13:47 | 50.86500 | 7.13389 | 253 ft | 9 kts | 42° |
| 2026-04-25 13:47 | 50.86538 | 7.13487 | 254 ft | 13 kts | 63° |
| 2026-04-25 13:47 | 50.86597 | 7.13676 | 257 ft | 24 kts | 64° |
| 2026-04-25 13:48 | 50.86663 | 7.13903 | 259 ft | 14 kts | 64° |
| 2026-04-25 13:48 | 50.86709 | 7.14049 | 258 ft | 15 kts | 63° |
| 2026-04-25 13:48 | 50.86798 | 7.14093 | 257 ft | 16 kts | 330° |
| 2026-04-25 13:48 | 50.86845 | 7.14033 | 256 ft | 0 kts | 315° |
| 2026-04-25 13:49 | 50.86880 | 7.13981 | 254 ft | 33 kts | 317° |
| 2026-04-25 13:49 | 50.87155 | 7.13577 | 247 ft | 57 kts | 318° |
| 2026-04-25 13:49 | 50.87390 | 7.13246 | 245 ft | 25 kts | 317° |
| 2026-04-25 13:49 | 50.87425 | 7.13129 | 245 ft | 9 kts | 238° |
| 2026-04-25 13:50 | 50.87380 | 7.13041 | 244 ft | 0 kts | 228° |